sensor_id;sensor_type;location;lat;lon;timestamp;P1;P2;P0
54553;PMS5003;40450;55.848;-3.572;2023-05-07T00:00:37;16;13;
54553;PMS5003;40450;55.848;-3.572;2023-05-07T00:03:07;14;12;
54553;PMS5003;40450;55.848;-3.572;2023-05-07T00:05:38;22;17;
54553;PMS5003;40450;55.848;-3.572;2023-05-07T00:08:08;17;12;
54553;PMS5003;40450;55.848;-3.572;2023-05-07T00:10:39;15;13;
54553;PMS5003;40450;55.848;-3.572;2023-05-07T00:13:09;23;19;
54553;PMS5003;40450;55.848;-3.572;2023-05-07T00:15:40;24;16;
54553;PMS5003;40450;55.848;-3.572;2023-05-07T00:18:10;23;16;
54553;PMS5003;40450;55.848;-3.572;2023-05-07T00:20:41;16;15;
54553;PMS5003;40450;55.848;-3.572;2023-05-07T00:23:12;15;13;
54553;PMS5003;40450;55.848;-3.572;2023-05-07T00:25:41;22;19;
54553;PMS5003;40450;55.848;-3.572;2023-05-07T00:28:12;16;14;
54553;PMS5003;40450;55.848;-3.572;2023-05-07T00:30:42;21;19;
54553;PMS5003;40450;55.848;-3.572;2023-05-07T00:33:13;14;13;
54553;PMS5003;40450;55.848;-3.572;2023-05-07T00:35:43;17;15;
54553;PMS5003;40450;55.848;-3.572;2023-05-07T00:38:13;17;15;
54553;PMS5003;40450;55.848;-3.572;2023-05-07T00:40:43;23;20;
54553;PMS5003;40450;55.848;-3.572;2023-05-07T00:43:14;21;16;
54553;PMS5003;40450;55.848;-3.572;2023-05-07T00:45:45;17;14;
54553;PMS5003;40450;55.848;-3.572;2023-05-07T00:48:15;21;19;
54553;PMS5003;40450;55.848;-3.572;2023-05-07T00:50:45;16;16;
54553;PMS5003;40450;55.848;-3.572;2023-05-07T00:53:15;13;12;
54553;PMS5003;40450;55.848;-3.572;2023-05-07T00:55:46;17;14;
54553;PMS5003;40450;55.848;-3.572;2023-05-07T00:58:17;20;17;
54553;PMS5003;40450;55.848;-3.572;2023-05-07T01:00:47;16;13;
54553;PMS5003;40450;55.848;-3.572;2023-05-07T01:03:18;13;11;
54553;PMS5003;40450;55.848;-3.572;2023-05-07T01:05:47;12;10;
54553;PMS5003;40450;55.848;-3.572;2023-05-07T01:08:18;16;14;
54553;PMS5003;40450;55.848;-3.572;2023-05-07T01:10:48;14;13;
54553;PMS5003;40450;55.848;-3.572;2023-05-07T01:13:19;16;15;
54553;PMS5003;40450;55.848;-3.572;2023-05-07T01:15:49;14;12;
54553;PMS5003;40450;55.848;-3.572;2023-05-07T01:18:19;15;14;
54553;PMS5003;40450;55.848;-3.572;2023-05-07T01:20:50;19;16;
54553;PMS5003;40450;55.848;-3.572;2023-05-07T01:23:20;13;11;
54553;PMS5003;40450;55.848;-3.572;2023-05-07T01:25:51;12;11;
54553;PMS5003;40450;55.848;-3.572;2023-05-07T01:28:21;13;11;
54553;PMS5003;40450;55.848;-3.572;2023-05-07T01:30:52;14;14;
54553;PMS5003;40450;55.848;-3.572;2023-05-07T01:33:21;13;10;
54553;PMS5003;40450;55.848;-3.572;2023-05-07T01:35:53;14;12;
54553;PMS5003;40450;55.848;-3.572;2023-05-07T01:38:24;14;13;
54553;PMS5003;40450;55.848;-3.572;2023-05-07T01:40:53;16;11;
54553;PMS5003;40450;55.848;-3.572;2023-05-07T01:43:29;17;12;
54553;PMS5003;40450;55.848;-3.572;2023-05-07T01:45:54;13;12;
54553;PMS5003;40450;55.848;-3.572;2023-05-07T01:48:24;10;10;
54553;PMS5003;40450;55.848;-3.572;2023-05-07T01:50:54;15;13;
54553;PMS5003;40450;55.848;-3.572;2023-05-07T01:53:26;14;11;
54553;PMS5003;40450;55.848;-3.572;2023-05-07T01:55:55;10;8;
54553;PMS5003;40450;55.848;-3.572;2023-05-07T01:58:26;13;11;
54553;PMS5003;40450;55.848;-3.572;2023-05-07T02:00:56;13;11;
54553;PMS5003;40450;55.848;-3.572;2023-05-07T02:03:26;17;13;
54553;PMS5003;40450;55.848;-3.572;2023-05-07T02:05:57;19;18;
54553;PMS5003;40450;55.848;-3.572;2023-05-07T02:08:27;12;11;
54553;PMS5003;40450;55.848;-3.572;2023-05-07T02:10:58;15;12;
54553;PMS5003;40450;55.848;-3.572;2023-05-07T02:13:28;15;12;
54553;PMS5003;40450;55.848;-3.572;2023-05-07T02:15:59;12;11;
54553;PMS5003;40450;55.848;-3.572;2023-05-07T02:18:29;16;13;
54553;PMS5003;40450;55.848;-3.572;2023-05-07T02:20:59;14;13;
54553;PMS5003;40450;55.848;-3.572;2023-05-07T02:23:29;17;13;
54553;PMS5003;40450;55.848;-3.572;2023-05-07T02:26:00;13;11;
54553;PMS5003;40450;55.848;-3.572;2023-05-07T02:28:30;16;13;
54553;PMS5003;40450;55.848;-3.572;2023-05-07T02:31:02;17;13;
54553;PMS5003;40450;55.848;-3.572;2023-05-07T02:33:31;16;14;
54553;PMS5003;40450;55.848;-3.572;2023-05-07T02:38:32;15;13;
54553;PMS5003;40450;55.848;-3.572;2023-05-07T02:41:02;17;11;
54553;PMS5003;40450;55.848;-3.572;2023-05-07T02:43:32;11;11;
54553;PMS5003;40450;55.848;-3.572;2023-05-07T02:46:03;10;9;
54553;PMS5003;40450;55.848;-3.572;2023-05-07T02:48:33;18;12;
54553;PMS5003;40450;55.848;-3.572;2023-05-07T02:51:04;12;9;
54553;PMS5003;40450;55.848;-3.572;2023-05-07T02:53:35;16;11;
54553;PMS5003;40450;55.848;-3.572;2023-05-07T02:56:06;16;12;
54553;PMS5003;40450;55.848;-3.572;2023-05-07T02:58:35;16;13;
54553;PMS5003;40450;55.848;-3.572;2023-05-07T03:01:06;14;10;
54553;PMS5003;40450;55.848;-3.572;2023-05-07T03:03:36;10;9;
54553;PMS5003;40450;55.848;-3.572;2023-05-07T03:06:07;18;13;
54553;PMS5003;40450;55.848;-3.572;2023-05-07T03:08:37;14;14;
54553;PMS5003;40450;55.848;-3.572;2023-05-07T03:11:08;12;8;
54553;PMS5003;40450;55.848;-3.572;2023-05-07T03:13:38;9;9;
54553;PMS5003;40450;55.848;-3.572;2023-05-07T03:16:08;15;11;
54553;PMS5003;40450;55.848;-3.572;2023-05-07T03:18:38;16;15;
54553;PMS5003;40450;55.848;-3.572;2023-05-07T03:21:08;12;11;
54553;PMS5003;40450;55.848;-3.572;2023-05-07T03:23:39;12;9;
54553;PMS5003;40450;55.848;-3.572;2023-05-07T03:26:09;13;9;
54553;PMS5003;40450;55.848;-3.572;2023-05-07T03:28:40;16;14;
54553;PMS5003;40450;55.848;-3.572;2023-05-07T03:31:10;11;11;
54553;PMS5003;40450;55.848;-3.572;2023-05-07T03:36:11;14;12;
54553;PMS5003;40450;55.848;-3.572;2023-05-07T03:38:41;11;11;
54553;PMS5003;40450;55.848;-3.572;2023-05-07T03:41:12;10;10;
54553;PMS5003;40450;55.848;-3.572;2023-05-07T03:43:43;12;10;
54553;PMS5003;40450;55.848;-3.572;2023-05-07T03:46:12;14;11;
54553;PMS5003;40450;55.848;-3.572;2023-05-07T03:48:42;12;10;
54553;PMS5003;40450;55.848;-3.572;2023-05-07T03:51:12;10;10;
54553;PMS5003;40450;55.848;-3.572;2023-05-07T03:53:43;11;9;
54553;PMS5003;40450;55.848;-3.572;2023-05-07T03:56:13;11;10;
54553;PMS5003;40450;55.848;-3.572;2023-05-07T03:58:43;12;9;
54553;PMS5003;40450;55.848;-3.572;2023-05-07T04:01:14;13;9;
54553;PMS5003;40450;55.848;-3.572;2023-05-07T04:03:44;11;10;
54553;PMS5003;40450;55.848;-3.572;2023-05-07T04:06:15;14;10;
54553;PMS5003;40450;55.848;-3.572;2023-05-07T04:08:45;13;12;
54553;PMS5003;40450;55.848;-3.572;2023-05-07T04:11:15;19;13;
54553;PMS5003;40450;55.848;-3.572;2023-05-07T04:13:46;13;11;
54553;PMS5003;40450;55.848;-3.572;2023-05-07T04:16:16;9;9;
54553;PMS5003;40450;55.848;-3.572;2023-05-07T04:18:47;11;11;
54553;PMS5003;40450;55.848;-3.572;2023-05-07T04:21:17;12;11;
54553;PMS5003;40450;55.848;-3.572;2023-05-07T04:23:47;15;12;
54553;PMS5003;40450;55.848;-3.572;2023-05-07T04:26:17;14;12;
54553;PMS5003;40450;55.848;-3.572;2023-05-07T04:28:47;15;11;
54553;PMS5003;40450;55.848;-3.572;2023-05-07T04:31:18;15;14;
54553;PMS5003;40450;55.848;-3.572;2023-05-07T04:33:49;10;10;
54553;PMS5003;40450;55.848;-3.572;2023-05-07T04:36:20;14;11;
54553;PMS5003;40450;55.848;-3.572;2023-05-07T04:38:50;12;9;
54553;PMS5003;40450;55.848;-3.572;2023-05-07T04:41:20;13;9;
54553;PMS5003;40450;55.848;-3.572;2023-05-07T04:43:50;12;11;
54553;PMS5003;40450;55.848;-3.572;2023-05-07T04:46:21;11;11;
54553;PMS5003;40450;55.848;-3.572;2023-05-07T04:48:51;14;14;
54553;PMS5003;40450;55.848;-3.572;2023-05-07T04:51:21;11;9;
54553;PMS5003;40450;55.848;-3.572;2023-05-07T04:53:51;10;10;
54553;PMS5003;40450;55.848;-3.572;2023-05-07T04:56:21;10;10;
54553;PMS5003;40450;55.848;-3.572;2023-05-07T04:58:51;15;13;
54553;PMS5003;40450;55.848;-3.572;2023-05-07T05:01:22;13;10;
54553;PMS5003;40450;55.848;-3.572;2023-05-07T05:03:52;11;9;
54553;PMS5003;40450;55.848;-3.572;2023-05-07T05:06:23;12;11;
54553;PMS5003;40450;55.848;-3.572;2023-05-07T05:08:53;14;10;
54553;PMS5003;40450;55.848;-3.572;2023-05-07T05:11:24;14;12;
54553;PMS5003;40450;55.848;-3.572;2023-05-07T05:13:54;8;8;
54553;PMS5003;40450;55.848;-3.572;2023-05-07T05:16:25;10;9;
54553;PMS5003;40450;55.848;-3.572;2023-05-07T05:18:55;8;6;
54553;PMS5003;40450;55.848;-3.572;2023-05-07T05:21:25;11;8;
54553;PMS5003;40450;55.848;-3.572;2023-05-07T05:23:56;11;10;
54553;PMS5003;40450;55.848;-3.572;2023-05-07T05:26:26;13;10;
54553;PMS5003;40450;55.848;-3.572;2023-05-07T05:28:56;10;9;
54553;PMS5003;40450;55.848;-3.572;2023-05-07T05:31:27;10;8;
54553;PMS5003;40450;55.848;-3.572;2023-05-07T05:33:57;14;11;
54553;PMS5003;40450;55.848;-3.572;2023-05-07T05:36:27;12;11;
54553;PMS5003;40450;55.848;-3.572;2023-05-07T05:38:57;9;9;
54553;PMS5003;40450;55.848;-3.572;2023-05-07T05:41:28;17;13;
54553;PMS5003;40450;55.848;-3.572;2023-05-07T05:43:58;8;8;
54553;PMS5003;40450;55.848;-3.572;2023-05-07T05:46:29;12;7;
54553;PMS5003;40450;55.848;-3.572;2023-05-07T05:48:58;12;12;
54553;PMS5003;40450;55.848;-3.572;2023-05-07T05:51:29;10;10;
54553;PMS5003;40450;55.848;-3.572;2023-05-07T05:53:59;11;8;
54553;PMS5003;40450;55.848;-3.572;2023-05-07T05:56:29;15;12;
54553;PMS5003;40450;55.848;-3.572;2023-05-07T05:58:59;13;9;
54553;PMS5003;40450;55.848;-3.572;2023-05-07T06:01:30;12;12;
54553;PMS5003;40450;55.848;-3.572;2023-05-07T06:04:00;18;12;
54553;PMS5003;40450;55.848;-3.572;2023-05-07T06:06:30;13;9;
54553;PMS5003;40450;55.848;-3.572;2023-05-07T06:09:00;13;13;
54553;PMS5003;40450;55.848;-3.572;2023-05-07T06:11:31;15;12;
54553;PMS5003;40450;55.848;-3.572;2023-05-07T06:14:01;11;9;
54553;PMS5003;40450;55.848;-3.572;2023-05-07T06:16:32;13;12;
54553;PMS5003;40450;55.848;-3.572;2023-05-07T06:19:02;17;14;
54553;PMS5003;40450;55.848;-3.572;2023-05-07T06:21:33;15;14;
54553;PMS5003;40450;55.848;-3.572;2023-05-07T06:24:03;13;13;
54553;PMS5003;40450;55.848;-3.572;2023-05-07T06:26:33;14;12;
54553;PMS5003;40450;55.848;-3.572;2023-05-07T06:29:03;15;11;
54553;PMS5003;40450;55.848;-3.572;2023-05-07T06:31:34;16;14;
54553;PMS5003;40450;55.848;-3.572;2023-05-07T06:34:04;14;12;
54553;PMS5003;40450;55.848;-3.572;2023-05-07T06:36:34;14;13;
54553;PMS5003;40450;55.848;-3.572;2023-05-07T06:39:05;17;11;
54553;PMS5003;40450;55.848;-3.572;2023-05-07T06:41:35;13;13;
54553;PMS5003;40450;55.848;-3.572;2023-05-07T06:44:05;12;11;
54553;PMS5003;40450;55.848;-3.572;2023-05-07T06:46:35;17;13;
54553;PMS5003;40450;55.848;-3.572;2023-05-07T06:49:06;25;15;
54553;PMS5003;40450;55.848;-3.572;2023-05-07T06:51:36;16;13;
54553;PMS5003;40450;55.848;-3.572;2023-05-07T06:54:06;16;16;
54553;PMS5003;40450;55.848;-3.572;2023-05-07T06:56:37;12;12;
54553;PMS5003;40450;55.848;-3.572;2023-05-07T06:59:07;13;13;
54553;PMS5003;40450;55.848;-3.572;2023-05-07T07:01:37;11;8;
54553;PMS5003;40450;55.848;-3.572;2023-05-07T07:04:07;14;11;
54553;PMS5003;40450;55.848;-3.572;2023-05-07T07:06:38;17;14;
54553;PMS5003;40450;55.848;-3.572;2023-05-07T07:09:08;14;13;
54553;PMS5003;40450;55.848;-3.572;2023-05-07T07:11:39;16;14;
54553;PMS5003;40450;55.848;-3.572;2023-05-07T07:14:09;19;14;
54553;PMS5003;40450;55.848;-3.572;2023-05-07T07:16:40;17;15;
54553;PMS5003;40450;55.848;-3.572;2023-05-07T07:19:10;14;12;
54553;PMS5003;40450;55.848;-3.572;2023-05-07T07:21:40;19;16;
54553;PMS5003;40450;55.848;-3.572;2023-05-07T07:24:11;16;15;
54553;PMS5003;40450;55.848;-3.572;2023-05-07T07:26:41;20;17;
54553;PMS5003;40450;55.848;-3.572;2023-05-07T07:29:11;13;11;
54553;PMS5003;40450;55.848;-3.572;2023-05-07T07:31:41;15;12;
54553;PMS5003;40450;55.848;-3.572;2023-05-07T07:34:11;22;17;
54553;PMS5003;40450;55.848;-3.572;2023-05-07T07:36:42;14;11;
54553;PMS5003;40450;55.848;-3.572;2023-05-07T07:39:12;21;18;
54553;PMS5003;40450;55.848;-3.572;2023-05-07T07:41:42;20;15;
54553;PMS5003;40450;55.848;-3.572;2023-05-07T07:44:12;19;17;
54553;PMS5003;40450;55.848;-3.572;2023-05-07T07:46:43;16;13;
54553;PMS5003;40450;55.848;-3.572;2023-05-07T07:49:13;16;13;
54553;PMS5003;40450;55.848;-3.572;2023-05-07T07:51:43;17;15;
54553;PMS5003;40450;55.848;-3.572;2023-05-07T07:54:13;17;15;
54553;PMS5003;40450;55.848;-3.572;2023-05-07T07:56:44;13;12;
54553;PMS5003;40450;55.848;-3.572;2023-05-07T07:59:14;14;14;
54553;PMS5003;40450;55.848;-3.572;2023-05-07T08:01:44;20;20;
54553;PMS5003;40450;55.848;-3.572;2023-05-07T08:04:15;21;19;
54553;PMS5003;40450;55.848;-3.572;2023-05-07T08:06:44;21;20;
54553;PMS5003;40450;55.848;-3.572;2023-05-07T08:09:15;22;20;
54553;PMS5003;40450;55.848;-3.572;2023-05-07T08:11:46;26;21;
54553;PMS5003;40450;55.848;-3.572;2023-05-07T08:14:16;21;20;
54553;PMS5003;40450;55.848;-3.572;2023-05-07T08:16:47;21;18;
54553;PMS5003;40450;55.848;-3.572;2023-05-07T08:19:17;26;22;
54553;PMS5003;40450;55.848;-3.572;2023-05-07T08:21:47;25;20;
54553;PMS5003;40450;55.848;-3.572;2023-05-07T08:24:18;21;20;
54553;PMS5003;40450;55.848;-3.572;2023-05-07T08:26:48;24;19;
54553;PMS5003;40450;55.848;-3.572;2023-05-07T08:29:19;23;18;
54553;PMS5003;40450;55.848;-3.572;2023-05-07T08:31:49;27;21;
54553;PMS5003;40450;55.848;-3.572;2023-05-07T08:34:20;24;21;
54553;PMS5003;40450;55.848;-3.572;2023-05-07T08:36:50;26;20;
54553;PMS5003;40450;55.848;-3.572;2023-05-07T08:39:20;27;23;
54553;PMS5003;40450;55.848;-3.572;2023-05-07T08:41:51;23;20;
54553;PMS5003;40450;55.848;-3.572;2023-05-07T08:44:21;21;17;
54553;PMS5003;40450;55.848;-3.572;2023-05-07T08:46:51;23;23;
54553;PMS5003;40450;55.848;-3.572;2023-05-07T08:49:22;23;21;
54553;PMS5003;40450;55.848;-3.572;2023-05-07T08:51:53;24;18;
54553;PMS5003;40450;55.848;-3.572;2023-05-07T08:54:23;20;19;
54553;PMS5003;40450;55.848;-3.572;2023-05-07T08:56:53;19;18;
54553;PMS5003;40450;55.848;-3.572;2023-05-07T08:59:23;21;19;
54553;PMS5003;40450;55.848;-3.572;2023-05-07T09:01:53;23;19;
54553;PMS5003;40450;55.848;-3.572;2023-05-07T09:04:24;25;23;
54553;PMS5003;40450;55.848;-3.572;2023-05-07T09:06:54;26;17;
54553;PMS5003;40450;55.848;-3.572;2023-05-07T09:09:24;20;19;
54553;PMS5003;40450;55.848;-3.572;2023-05-07T09:11:56;24;18;
54553;PMS5003;40450;55.848;-3.572;2023-05-07T09:14:25;22;18;
54553;PMS5003;40450;55.848;-3.572;2023-05-07T09:16:55;17;17;
54553;PMS5003;40450;55.848;-3.572;2023-05-07T09:19:26;15;15;
54553;PMS5003;40450;55.848;-3.572;2023-05-07T09:21:58;18;17;
54553;PMS5003;40450;55.848;-3.572;2023-05-07T09:24:27;18;15;
54553;PMS5003;40450;55.848;-3.572;2023-05-07T09:26:57;21;18;
54553;PMS5003;40450;55.848;-3.572;2023-05-07T09:29:28;24;19;
54553;PMS5003;40450;55.848;-3.572;2023-05-07T09:31:59;17;17;
54553;PMS5003;40450;55.848;-3.572;2023-05-07T09:34:29;18;15;
54553;PMS5003;40450;55.848;-3.572;2023-05-07T09:36:59;20;19;
54553;PMS5003;40450;55.848;-3.572;2023-05-07T09:42:01;24;19;
54553;PMS5003;40450;55.848;-3.572;2023-05-07T09:44:31;18;18;
54553;PMS5003;40450;55.848;-3.572;2023-05-07T09:47:02;18;17;
54553;PMS5003;40450;55.848;-3.572;2023-05-07T09:49:34;25;21;
54553;PMS5003;40450;55.848;-3.572;2023-05-07T09:52:03;16;16;
54553;PMS5003;40450;55.848;-3.572;2023-05-07T09:54:33;16;16;
54553;PMS5003;40450;55.848;-3.572;2023-05-07T09:57:03;18;16;
54553;PMS5003;40450;55.848;-3.572;2023-05-07T09:59:34;20;16;
54553;PMS5003;40450;55.848;-3.572;2023-05-07T10:02:04;21;18;
54553;PMS5003;40450;55.848;-3.572;2023-05-07T10:04:34;16;12;
54553;PMS5003;40450;55.848;-3.572;2023-05-07T10:07:04;18;17;
54553;PMS5003;40450;55.848;-3.572;2023-05-07T10:09:34;15;14;
54553;PMS5003;40450;55.848;-3.572;2023-05-07T10:12:05;19;15;
54553;PMS5003;40450;55.848;-3.572;2023-05-07T10:14:35;20;17;
54553;PMS5003;40450;55.848;-3.572;2023-05-07T10:17:05;25;17;
54553;PMS5003;40450;55.848;-3.572;2023-05-07T10:19:36;21;16;
54553;PMS5003;40450;55.848;-3.572;2023-05-07T10:22:06;22;18;
54553;PMS5003;40450;55.848;-3.572;2023-05-07T10:24:36;18;15;
54553;PMS5003;40450;55.848;-3.572;2023-05-07T10:27:07;18;16;
54553;PMS5003;40450;55.848;-3.572;2023-05-07T10:29:39;19;17;
54553;PMS5003;40450;55.848;-3.572;2023-05-07T10:32:14;17;13;
54553;PMS5003;40450;55.848;-3.572;2023-05-07T10:34:38;26;24;
54553;PMS5003;40450;55.848;-3.572;2023-05-07T10:37:08;24;21;
54553;PMS5003;40450;55.848;-3.572;2023-05-07T10:39:39;23;20;
54553;PMS5003;40450;55.848;-3.572;2023-05-07T10:42:10;21;17;
54553;PMS5003;40450;55.848;-3.572;2023-05-07T10:44:40;18;18;
54553;PMS5003;40450;55.848;-3.572;2023-05-07T10:47:11;20;19;
54553;PMS5003;40450;55.848;-3.572;2023-05-07T10:52:11;20;19;
54553;PMS5003;40450;55.848;-3.572;2023-05-07T10:54:41;20;17;
54553;PMS5003;40450;55.848;-3.572;2023-05-07T10:59:43;18;16;
54553;PMS5003;40450;55.848;-3.572;2023-05-07T11:02:12;22;20;
54553;PMS5003;40450;55.848;-3.572;2023-05-07T11:04:43;20;17;
54553;PMS5003;40450;55.848;-3.572;2023-05-07T11:07:20;17;17;
54553;PMS5003;40450;55.848;-3.572;2023-05-07T11:12:15;18;16;
54553;PMS5003;40450;55.848;-3.572;2023-05-07T11:14:45;20;16;
54553;PMS5003;40450;55.848;-3.572;2023-05-07T11:17:15;23;16;
54553;PMS5003;40450;55.848;-3.572;2023-05-07T11:19:49;16;16;
54553;PMS5003;40450;55.848;-3.572;2023-05-07T11:24:46;23;21;
54553;PMS5003;40450;55.848;-3.572;2023-05-07T11:27:19;20;17;
54553;PMS5003;40450;55.848;-3.572;2023-05-07T11:29:47;20;16;
54553;PMS5003;40450;55.848;-3.572;2023-05-07T11:32:21;25;20;
54553;PMS5003;40450;55.848;-3.572;2023-05-07T11:34:50;17;14;
54553;PMS5003;40450;55.848;-3.572;2023-05-07T11:37:18;17;17;
54553;PMS5003;40450;55.848;-3.572;2023-05-07T11:39:48;17;16;
54553;PMS5003;40450;55.848;-3.572;2023-05-07T11:44:49;19;16;
54553;PMS5003;40450;55.848;-3.572;2023-05-07T11:47:20;23;19;
54553;PMS5003;40450;55.848;-3.572;2023-05-07T11:49:51;22;18;
54553;PMS5003;40450;55.848;-3.572;2023-05-07T11:52:22;25;18;
54553;PMS5003;40450;55.848;-3.572;2023-05-07T11:54:51;20;19;
54553;PMS5003;40450;55.848;-3.572;2023-05-07T11:57:21;20;18;
54553;PMS5003;40450;55.848;-3.572;2023-05-07T11:59:52;22;18;
54553;PMS5003;40450;55.848;-3.572;2023-05-07T12:02:22;18;17;
54553;PMS5003;40450;55.848;-3.572;2023-05-07T12:04:52;22;18;
54553;PMS5003;40450;55.848;-3.572;2023-05-07T12:07:23;22;20;
54553;PMS5003;40450;55.848;-3.572;2023-05-07T12:09:53;18;17;
54553;PMS5003;40450;55.848;-3.572;2023-05-07T12:12:23;17;17;
54553;PMS5003;40450;55.848;-3.572;2023-05-07T12:14:54;24;22;
54553;PMS5003;40450;55.848;-3.572;2023-05-07T12:17:24;18;16;
54553;PMS5003;40450;55.848;-3.572;2023-05-07T12:19:55;21;18;
54553;PMS5003;40450;55.848;-3.572;2023-05-07T12:22:25;21;19;
54553;PMS5003;40450;55.848;-3.572;2023-05-07T12:24:56;19;18;
54553;PMS5003;40450;55.848;-3.572;2023-05-07T12:27:26;23;21;
54553;PMS5003;40450;55.848;-3.572;2023-05-07T12:29:57;25;23;
54553;PMS5003;40450;55.848;-3.572;2023-05-07T12:32:27;21;21;
54553;PMS5003;40450;55.848;-3.572;2023-05-07T12:34:57;19;19;
54553;PMS5003;40450;55.848;-3.572;2023-05-07T12:37:27;22;20;
54553;PMS5003;40450;55.848;-3.572;2023-05-07T12:42:28;21;20;
54553;PMS5003;40450;55.848;-3.572;2023-05-07T12:44:58;25;23;
54553;PMS5003;40450;55.848;-3.572;2023-05-07T12:47:29;29;22;
54553;PMS5003;40450;55.848;-3.572;2023-05-07T12:49:59;22;22;
54553;PMS5003;40450;55.848;-3.572;2023-05-07T12:52:29;26;23;
54553;PMS5003;40450;55.848;-3.572;2023-05-07T12:55:04;26;21;
54553;PMS5003;40450;55.848;-3.572;2023-05-07T12:57:30;26;23;
54553;PMS5003;40450;55.848;-3.572;2023-05-07T13:00:01;24;23;
54553;PMS5003;40450;55.848;-3.572;2023-05-07T13:02:32;25;22;
54553;PMS5003;40450;55.848;-3.572;2023-05-07T13:05:01;21;20;
54553;PMS5003;40450;55.848;-3.572;2023-05-07T13:07:32;26;23;
54553;PMS5003;40450;55.848;-3.572;2023-05-07T13:10:02;20;19;
54553;PMS5003;40450;55.848;-3.572;2023-05-07T13:12:33;21;21;
54553;PMS5003;40450;55.848;-3.572;2023-05-07T13:15:03;24;20;
54553;PMS5003;40450;55.848;-3.572;2023-05-07T13:17:33;24;21;
54553;PMS5003;40450;55.848;-3.572;2023-05-07T13:20:03;22;22;
54553;PMS5003;40450;55.848;-3.572;2023-05-07T13:22:34;18;16;
54553;PMS5003;40450;55.848;-3.572;2023-05-07T13:25:04;27;20;
54553;PMS5003;40450;55.848;-3.572;2023-05-07T13:27:34;20;19;
54553;PMS5003;40450;55.848;-3.572;2023-05-07T13:30:06;24;22;
54553;PMS5003;40450;55.848;-3.572;2023-05-07T13:32:36;23;22;
54553;PMS5003;40450;55.848;-3.572;2023-05-07T13:35:07;17;17;
54553;PMS5003;40450;55.848;-3.572;2023-05-07T13:37:37;19;17;
54553;PMS5003;40450;55.848;-3.572;2023-05-07T13:40:08;25;20;
54553;PMS5003;40450;55.848;-3.572;2023-05-07T13:42:38;20;18;
54553;PMS5003;40450;55.848;-3.572;2023-05-07T13:45:08;21;20;
54553;PMS5003;40450;55.848;-3.572;2023-05-07T13:47:38;16;16;
54553;PMS5003;40450;55.848;-3.572;2023-05-07T13:50:09;17;17;
54553;PMS5003;40450;55.848;-3.572;2023-05-07T13:52:40;19;17;
54553;PMS5003;40450;55.848;-3.572;2023-05-07T13:55:09;17;17;
54553;PMS5003;40450;55.848;-3.572;2023-05-07T13:57:39;20;17;
54553;PMS5003;40450;55.848;-3.572;2023-05-07T14:00:11;20;16;
54553;PMS5003;40450;55.848;-3.572;2023-05-07T14:02:40;20;19;
54553;PMS5003;40450;55.848;-3.572;2023-05-07T14:05:10;21;16;
54553;PMS5003;40450;55.848;-3.572;2023-05-07T14:07:41;21;18;
54553;PMS5003;40450;55.848;-3.572;2023-05-07T14:10:11;23;16;
54553;PMS5003;40450;55.848;-3.572;2023-05-07T14:12:48;16;16;
54553;PMS5003;40450;55.848;-3.572;2023-05-07T14:15:13;19;18;
54553;PMS5003;40450;55.848;-3.572;2023-05-07T14:17:47;16;16;
54553;PMS5003;40450;55.848;-3.572;2023-05-07T14:20:17;15;15;
54553;PMS5003;40450;55.848;-3.572;2023-05-07T14:22:42;18;17;
54553;PMS5003;40450;55.848;-3.572;2023-05-07T14:25:21;22;19;
54553;PMS5003;40450;55.848;-3.572;2023-05-07T14:27:48;22;18;
54553;PMS5003;40450;55.848;-3.572;2023-05-07T14:30:22;18;18;
54553;PMS5003;40450;55.848;-3.572;2023-05-07T14:32:44;20;17;
54553;PMS5003;40450;55.848;-3.572;2023-05-07T14:35:14;18;16;
54553;PMS5003;40450;55.848;-3.572;2023-05-07T14:37:45;16;14;
54553;PMS5003;40450;55.848;-3.572;2023-05-07T14:40:16;15;15;
54553;PMS5003;40450;55.848;-3.572;2023-05-07T14:42:46;19;17;
54553;PMS5003;40450;55.848;-3.572;2023-05-07T14:45:17;28;17;
54553;PMS5003;40450;55.848;-3.572;2023-05-07T14:47:47;18;16;
54553;PMS5003;40450;55.848;-3.572;2023-05-07T14:50:17;15;13;
54553;PMS5003;40450;55.848;-3.572;2023-05-07T14:52:48;20;18;
54553;PMS5003;40450;55.848;-3.572;2023-05-07T14:55:18;19;18;
54553;PMS5003;40450;55.848;-3.572;2023-05-07T14:57:49;18;17;
54553;PMS5003;40450;55.848;-3.572;2023-05-07T15:00:20;20;17;
54553;PMS5003;40450;55.848;-3.572;2023-05-07T15:02:49;16;14;
54553;PMS5003;40450;55.848;-3.572;2023-05-07T15:05:20;25;23;
54553;PMS5003;40450;55.848;-3.572;2023-05-07T15:07:50;26;24;
54553;PMS5003;40450;55.848;-3.572;2023-05-07T15:10:20;19;16;
54553;PMS5003;40450;55.848;-3.572;2023-05-07T15:12:51;17;17;
54553;PMS5003;40450;55.848;-3.572;2023-05-07T15:15:21;21;19;
54553;PMS5003;40450;55.848;-3.572;2023-05-07T15:17:52;24;20;
54553;PMS5003;40450;55.848;-3.572;2023-05-07T15:20:23;19;16;
54553;PMS5003;40450;55.848;-3.572;2023-05-07T15:22:53;21;17;
54553;PMS5003;40450;55.848;-3.572;2023-05-07T15:25:24;22;20;
54553;PMS5003;40450;55.848;-3.572;2023-05-07T15:27:54;22;18;
54553;PMS5003;40450;55.848;-3.572;2023-05-07T15:30:25;19;18;
54553;PMS5003;40450;55.848;-3.572;2023-05-07T15:32:56;21;19;
54553;PMS5003;40450;55.848;-3.572;2023-05-07T15:35:27;25;23;
54553;PMS5003;40450;55.848;-3.572;2023-05-07T15:37:57;22;17;
54553;PMS5003;40450;55.848;-3.572;2023-05-07T15:40:28;25;21;
54553;PMS5003;40450;55.848;-3.572;2023-05-07T15:42:58;19;17;
54553;PMS5003;40450;55.848;-3.572;2023-05-07T15:45:29;23;17;
54553;PMS5003;40450;55.848;-3.572;2023-05-07T15:47:59;22;18;
54553;PMS5003;40450;55.848;-3.572;2023-05-07T15:50:30;17;16;
54553;PMS5003;40450;55.848;-3.572;2023-05-07T15:53:00;21;20;
54553;PMS5003;40450;55.848;-3.572;2023-05-07T15:55:31;23;22;
54553;PMS5003;40450;55.848;-3.572;2023-05-07T15:58:01;23;20;
54553;PMS5003;40450;55.848;-3.572;2023-05-07T16:00:32;18;16;
54553;PMS5003;40450;55.848;-3.572;2023-05-07T16:03:02;23;20;
54553;PMS5003;40450;55.848;-3.572;2023-05-07T16:05:33;20;20;
54553;PMS5003;40450;55.848;-3.572;2023-05-07T16:08:03;24;22;
54553;PMS5003;40450;55.848;-3.572;2023-05-07T16:10:33;23;21;
54553;PMS5003;40450;55.848;-3.572;2023-05-07T16:13:03;19;18;
54553;PMS5003;40450;55.848;-3.572;2023-05-07T16:15:34;24;21;
54553;PMS5003;40450;55.848;-3.572;2023-05-07T16:18:04;23;22;
54553;PMS5003;40450;55.848;-3.572;2023-05-07T16:20:34;24;22;
54553;PMS5003;40450;55.848;-3.572;2023-05-07T16:23:05;23;21;
54553;PMS5003;40450;55.848;-3.572;2023-05-07T16:25:35;19;18;
54553;PMS5003;40450;55.848;-3.572;2023-05-07T16:28:06;25;19;
54553;PMS5003;40450;55.848;-3.572;2023-05-07T16:30:36;26;23;
54553;PMS5003;40450;55.848;-3.572;2023-05-07T16:33:06;24;22;
54553;PMS5003;40450;55.848;-3.572;2023-05-07T16:35:36;22;21;
54553;PMS5003;40450;55.848;-3.572;2023-05-07T16:38:06;24;19;
54553;PMS5003;40450;55.848;-3.572;2023-05-07T16:40:37;21;19;
54553;PMS5003;40450;55.848;-3.572;2023-05-07T16:43:07;26;22;
54553;PMS5003;40450;55.848;-3.572;2023-05-07T16:45:37;24;21;